CDT,Max TemperatureF,Mean TemperatureF,Min TemperatureF,Max Dew PointF,MeanDew PointF,Min DewpointF,Max Humidity, Mean Humidity, Min Humidity, Max Sea Level PressureIn, Mean Sea Level PressureIn, Min Sea Level PressureIn, Max VisibilityMiles, Mean VisibilityMiles, Min VisibilityMiles, Max Wind SpeedMPH, Mean Wind SpeedMPH, Max Gust SpeedMPH,PrecipitationIn, CloudCover, Events, WindDirDegrees
2013-9-1,89,80,71,75,73,70,94,81,61,29.95,29.72,29.55,10,7,0,8,1,,0.01,2,Fog-Rain-Thunderstorm,247
2013-9-2,91,81,71,75,72,69,100,84,52,29.99,29.73,29.57,10,6,0,12,2,18,0.01,3,Fog-Thunderstorm,255
2013-9-3,90,80,71,75,71,69,100,86,57,30.00,29.83,29.59,10,6,0,24,1,33,0.26,4,Fog-Rain-Thunderstorm,272
2013-9-4,91,80,69,74,70,66,94,81,50,30.09,29.82,29.66,10,8,2,8,1,,0.00,2,Thunderstorm,216
2013-9-5,93,83,73,73,71,68,94,71,47,29.80,29.75,29.71,10,9,3,7,2,,0.00,1,,346
2013-9-6,91,81,71,71,68,65,90,68,42,29.77,29.73,29.68,10,10,7,7,1,,0.00,0,,348
2013-9-7,91,81,71,72,69,65,94,72,43,30.05,29.71,29.65,10,8,3,6,3,,0.00,1,,98
2013-9-8,91,80,69,73,68,63,93,71,38,29.70,29.66,29.62,10,8,4,7,1,,0.00,1,,127
2013-9-9,93,80,68,73,69,65,94,69,41,30.08,29.71,29.65,10,8,2,7,1,,0.17,2,Rain,24
2013-9-10,91,82,73,73,69,64,94,71,42,30.08,29.83,29.74,10,8,2,9,4,18,0.00,2,Rain,85
2013-9-11,91,82,72,71,69,67,91,69,45,29.85,29.79,29.73,10,10,9,13,6,16,0.00,1,,68
2013-9-12,93,82,71,72,67,60,90,68,33,29.74,29.68,29.60,10,10,7,8,1,,0.00,1,,82
2013-9-13,93,80,68,72,68,63,94,72,37,29.90,29.63,29.49,10,8,1,14,3,21,0.80,3,Rain-Thunderstorm,360
2013-9-14,88,78,68,71,63,59,87,65,39,29.69,29.61,29.54,10,10,6,8,4,,0.00,1,,353
2013-9-15,91,80,68,73,68,61,87,65,47,29.76,29.72,29.68,10,10,10,9,5,,0.00,2,,84
2013-9-16,95,84,72,73,71,68,94,78,41,30.08,29.78,29.69,10,9,6,14,2,,0.06,2,Rain-Thunderstorm,78
2013-9-17,90,81,72,74,71,69,93,76,55,29.78,29.74,29.69,10,9,5,13,4,20,0.05,1,Rain,72
2013-9-18,84,77,70,70,68,65,88,71,57,30.15,29.86,29.73,10,9,8,12,9,,0.00,3,,77
2013-9-19,88,78,68,68,64,63,84,65,44,30.13,29.78,29.71,10,10,10,10,6,,0.00,1,,83
2013-9-20,89,80,70,72,67,62,87,69,46,29.94,29.67,29.57,10,10,9,9,5,,0.00,3,Rain,129
2013-9-21,78,75,72,75,72,69,94,91,82,29.87,29.65,29.43,10,8,0,7,3,,0.80,5,Fog-Rain,184
2013-9-22,79,74,69,72,68,66,96,84,65,29.82,29.60,29.42,10,8,2,9,4,,0.16,8,Rain,33
2013-9-23,82,76,71,75,72,68,94,90,79,29.94,29.74,29.50,10,7,0,10,6,,1.70,7,Rain-Thunderstorm,67
2013-9-24,81,76,71,73,72,70,100,89,74,29.94,29.71,29.45,10,6,2,16,6,,0.69,7,Rain,69
2013-9-25,86,78,71,73,71,70,100,86,61,29.83,29.62,29.42,10,9,1,8,4,,0.07,6,Rain,74
2013-9-26,81,74,68,70,66,62,96,81,58,29.95,29.67,29.49,10,8,1,13,7,16,0.00,6,,29
2013-9-27,82,73,64,62,59,55,90,64,38,29.75,29.70,29.65,10,10,8,13,6,17,0.00,0,,35
2013-9-28,82,72,63,59,57,55,78,61,44,29.81,29.76,29.72,10,10,10,13,7,,0.00,0,,58
2013-9-29,82,71,60,63,59,54,86,67,44,29.76,29.71,29.65,10,10,10,9,5,,0.00,0,,46
2013-9-30,82,73,64,66,63,58,87,75,54,29.71,29.67,29.63,10,10,10,9,5,,0.00,1,,80